Time;durP1;ratioP1;P1;durP2;ratioP2;P2;SDS_P1;SDS_P2;PMS_P1;PMS_P2;Temp;Humidity;BMP_temperature;BMP_pressure;BME280_temperature;BME280_humidity;BME280_pressure;Samples;Min_cycle;Max_cycle;Signal;HPM_P1;HPM_P2
2022/01/20 05:29:43;;;;;;;17.30;8.20;;;;;;;-0.30;80.64;99533.47;6218996;22;20032;-91
2022/01/20 05:36:37;;;;;;;;;;;;;;;;;;;;;
2022/01/20 05:52:53;;;;;;;16.08;7.68;;;;;;;0.51;80.75;99642.81;6216727;22;20051;-93
2022/01/20 06:10:02;;;;;;;19.38;7.60;;;;;;;0.76;81.17;99592.72;6226035;22;20042;-91
2022/01/20 06:16:43;;;;;;;19.25;7.85;;;;;;;0.93;81.05;99584.16;5952534;23;20021;-81
2022/01/20 06:19:49;;;;;;;17.38;7.88;;;;;;;0.84;80.29;99578.75;6183010;23;20032;-81
2022/01/20 07:10:21;;;;;;;13.77;6.55;;;;;;;1.64;81.55;99566.47;6235980;23;20391;-88
2022/01/20 07:12:54;;;;;;;15.82;7.47;;;;;;;1.68;82.08;99554.88;6197511;23;20039;-90
2022/01/20 07:15:24;;;;;;;17.20;6.75;;;;;;;1.89;81.68;99570.63;6196860;23;20020;-88
2022/01/20 07:17:54;;;;;;;15.32;6.90;;;;;;;1.97;81.39;99569.19;6222855;23;20099;-89
2022/01/20 07:20:28;;;;;;;12.38;6.25;;;;;;;2.02;81.82;99573.56;6218621;23;20023;-86
2022/01/20 07:23:10;;;;;;;12.68;5.50;;;;;;;2.11;81.57;99570.50;6223080;23;20087;-87
2022/01/20 07:26:02;;;;;;;14.10;5.55;;;;;;;2.21;81.34;99569.94;6218635;23;20012;-89
2022/01/20 07:28:31;;;;;;;13.40;6.07;;;;;;;2.22;80.82;99566.63;6219966;23;20024;-88
2022/01/20 07:31:01;;;;;;;11.73;6.00;;;;;;;1.59;80.50;99466.53;6146180;23;20016;-90
2022/01/20 07:33:30;;;;;;;;;;;;;;;2.33;81.03;99575.34;6195984;23;20062;-88
2022/01/20 07:35:59;;;;;;;9.07;4.95;;;;;;;1.87;80.21;99501.81;6218071;23;19923;-80
2022/01/20 07:38:30;;;;;;;8.05;3.92;;;;;;;2.33;80.82;99577.88;6221745;23;20050;-87
2022/01/20 07:41:00;;;;;;;13.60;5.38;;;;;;;2.23;80.05;99563.28;6245621;23;20020;-87
2022/01/20 07:43:30;;;;;;;10.45;5.68;;;;;;;2.29;80.05;99563.50;6197335;23;20474;-87
2022/01/20 07:46:10;;;;;;;10.18;5.47;;;;;;;2.46;79.94;99567.38;6220006;23;20027;-82
2022/01/20 07:48:51;;;;;;;14.93;5.32;;;;;;;2.37;79.98;99544.44;6198874;23;20022;-87
2022/01/20 07:51:21;;;;;;;9.93;5.03;;;;;;;2.64;79.98;99588.03;6172859;23;20477;-90
2022/01/20 07:53:54;;;;;;;8.82;4.75;;;;;;;2.65;79.04;99584.72;6221152;23;20099;-87
2022/01/20 07:56:25;;;;;;;7.60;3.78;;;;;;;2.71;79.61;99589.91;6221228;23;20080;-85
2022/01/20 07:58:54;;;;;;;;;;;;;;;2.77;79.00;99590.91;6205374;23;20136;-87
2022/01/20 08:01:25;;;;;;;9.27;4.32;;;;;;;2.83;79.33;99593.63;6230007;23;19921;-86
2022/01/20 08:04:27;;;;;;;8.18;3.60;;;;;;;2.85;78.60;99592.00;6223508;23;20094;-86
2022/01/20 08:08:00;;;;;;;;;;;;;;;2.89;78.34;99598.81;6185189;23;20055;-88
2022/01/20 08:10:34;;;;;;;5.75;3.05;;;;;;;2.94;78.70;99602.31;6217535;23;19915;-89
2022/01/20 08:13:05;;;;;;;7.35;3.67;;;;;;;3.01;78.06;99599.16;6172363;23;20016;-89
2022/01/20 08:15:34;;;;;;;7.07;3.45;;;;;;;2.51;78.13;99512.94;6221590;23;20016;-88
2022/01/20 08:18:20;;;;;;;9.70;4.28;;;;;;;3.03;77.87;99597.53;6221852;23;20016;-88
2022/01/20 08:20:49;;;;;;;8.55;3.75;;;;;;;3.13;78.18;99604.53;6219931;23;20097;-91
2022/01/20 08:23:20;;;;;;;7.38;3.20;;;;;;;3.06;77.82;99572.41;6218423;23;20086;-88
2022/01/20 08:25:53;;;;;;;6.55;3.10;;;;;;;2.44;77.24;99458.19;6147947;23;20012;-88
2022/01/20 08:28:23;;;;;;;6.72;3.15;;;;;;;3.27;77.65;99598.19;6194600;23;20090;-87
2022/01/20 08:30:54;;;;;;;7.05;3.30;;;;;;;3.30;77.06;99600.81;6219846;23;20027;-88
2022/01/20 08:37:40;;;;;;;6.47;3.17;;;;;;;3.32;76.84;99601.69;6136851;23;20444;-91
2022/01/20 08:40:11;;;;;;;5.28;2.65;;;;;;;3.41;76.61;99606.97;6188657;23;20023;-88
2022/01/20 08:42:50;;;;;;;5.13;2.63;;;;;;;3.46;76.27;99602.06;6196933;23;20039;-88
2022/01/20 08:45:22;;;;;;;5.35;2.90;;;;;;;2.82;76.31;99486.06;6221081;23;20474;-89
2022/01/20 08:47:55;;;;;;;4.78;2.60;;;;;;;3.51;75.82;99588.75;6221562;23;20047;-88
2022/01/20 08:50:33;;;;;;;6.07;2.80;;;;;;;3.48;75.58;99568.47;6221169;23;20028;-89
2022/01/20 08:53:04;;;;;;;5.10;2.83;;;;;;;3.47;76.08;99565.94;6221320;23;20020;-88
2022/01/20 08:55:35;;;;;;;5.72;2.63;;;;;;;3.57;76.15;99575.44;6221107;23;20081;-87
2022/01/20 08:58:16;;;;;;;6.70;2.80;;;;;;;3.64;75.99;99578.16;6198152;23;20012;-86
2022/01/20 09:00:45;;;;;;;6.55;2.80;;;;;;;3.67;75.52;99575.69;6221436;23;20351;-89
2022/01/20 09:07:04;;;;;;;5.57;2.55;;;;;;;3.75;74.71;99580.94;5903714;23;20350;-86
2022/01/20 09:09:41;;;;;;;5.93;2.60;;;;;;;3.44;74.89;99526.34;6160753;23;20036;-86
2022/01/20 09:17:45;;;;;;;5.40;2.83;;;;;;;3.68;75.02;99537.06;6163429;23;20025;-88
2022/01/20 09:20:31;;;;;;;7.60;3.30;;;;;;;3.61;74.31;99530.16;6160691;23;20025;-87
2022/01/20 09:23:01;;;;;;;7.50;2.80;;;;;;;3.43;74.30;99478.41;6187059;23;20017;-88
2022/01/20 09:25:31;;;;;;;7.93;3.17;;;;;;;3.97;74.53;99584.03;6156120;23;20082;-91
2022/01/20 09:28:22;;;;;;;6.07;3.15;;;;;;;3.97;74.47;99584.03;6216400;23;20020;-91
2022/01/20 09:30:57;;;;;;;8.57;3.10;;;;;;;3.98;74.58;99582.38;6215722;23;20020;-92
2022/01/20 09:34:21;;;;;;;6.43;2.83;;;;;;;4.08;74.35;99580.06;6216122;23;20021;-91
2022/01/20 09:36:51;;;;;;;7.03;3.00;;;;;;;4.12;74.21;99570.06;6190815;23;20013;-91
2022/01/20 09:39:25;;;;;;;5.38;2.95;;;;;;;3.98;74.30;99536.94;6191886;23;20013;-90
2022/01/20 09:42:21;;;;;;;5.68;3.00;;;;;;;4.10;73.67;99546.44;6217512;23;20341;-91
2022/01/20 09:45:24;;;;;;;6.70;3.15;;;;;;;4.15;73.36;99544.88;6216432;23;20016;-91
2022/01/20 09:48:58;;;;;;;5.55;2.72;;;;;;;4.39;73.37;99570.69;6192962;23;20520;-90
2022/01/20 09:51:58;;;;;;;5.18;2.63;;;;;;;4.37;73.05;99563.03;6195738;23;20356;-92
2022/01/20 09:58:28;;;;;;;4.83;2.70;;;;;;;4.18;72.18;99500.31;5963203;23;20032;-88
2022/01/20 10:01:07;;;;;;;4.70;2.35;;;;;;;4.65;71.81;99541.75;6190966;23;20020;-90
2022/01/20 10:03:38;;;;;;;4.27;1.63;;;;;;;4.86;71.21;99532.06;6165726;23;20391;-90
2022/01/20 10:06:08;;;;;;;5.55;2.20;;;;;;;4.03;70.53;99344.31;6191108;23;20044;-91
2022/01/20 10:08:59;;;;;;;3.90;2.30;;;;;;;5.36;69.95;99528.78;6191531;23;20021;-90
2022/01/20 10:11:59;;;;;;;4.85;2.10;;;;;;;4.62;69.65;99372.38;6198132;23;20456;-91
2022/01/20 10:14:57;;;;;;;;;;;;;;;5.61;69.02;99525.00;6218102;23;20020;-90
2022/01/20 10:17:49;;;;;;;4.10;1.85;;;;;;;5.42;68.37;99473.22;6217507;23;19939;-90
2022/01/20 10:21:03;;;;;;;3.97;1.85;;;;;;;5.80;67.80;99531.22;6191790;23;20082;-86
2022/01/20 10:23:41;;;;;;;4.65;1.85;;;;;;;5.57;66.56;99479.34;6184837;23;20096;-85
2022/01/20 10:30:19;;;;;;;2.83;1.50;;;;;;;5.98;66.00;99501.13;6187971;23;20021;-84
2022/01/20 10:36:22;;;;;;;3.03;1.63;;;;;;;5.99;65.16;99467.38;6162041;23;19923;-84
2022/01/20 10:42:47;;;;;;;2.88;1.52;;;;;;;6.80;63.73;99451.47;6128105;23;20029;-84
2022/01/20 10:45:47;;;;;;;2.88;1.60;;;;;;;6.81;63.29;99422.75;6128664;23;20049;-85
2022/01/20 10:49:07;;;;;;;3.92;1.50;;;;;;;7.08;62.19;99443.31;6098915;23;20030;-85
2022/01/20 10:52:13;;;;;;;5.10;1.60;;;;;;;7.09;61.74;99434.84;6074508;23;20018;-84
2022/01/20 10:54:45;;;;;;;4.70;2.22;;;;;;;7.10;62.56;99426.41;6051283;23;20036;-84
2022/01/20 10:57:50;;;;;;;4.32;2.00;;;;;;;7.17;62.25;99418.00;6074673;23;20038;-83
2022/01/20 11:00:29;;;;;;;5.25;1.88;;;;;;;7.23;61.26;99425.66;6073796;23;20030;-83
2022/01/20 11:03:02;;;;;;;3.20;1.43;;;;;;;7.18;61.64;99429.84;6024967;23;20068;-83
2022/01/20 11:05:50;;;;;;;3.85;1.65;;;;;;;7.10;61.54;99421.31;6046169;23;20411;-84
2022/01/20 11:08:42;;;;;;;4.00;1.85;;;;;;;6.92;61.44;99363.66;6068980;23;20120;-84
2022/01/20 11:11:30;;;;;;;8.23;2.88;;;;;;;7.38;61.25;99418.16;6045335;23;20090;-85
2022/01/20 11:14:13;;;;;;;3.70;1.80;;;;;;;7.22;60.76;99401.13;6047239;23;20045;-86
2022/01/20 11:16:46;;;;;;;4.70;1.90;;;;;;;6.85;60.73;99368.66;6069624;23;20019;-83
2022/01/20 11:19:18;;;;;;;4.15;1.55;;;;;;;7.07;61.23;99380.69;6072741;23;20101;-84
2022/01/20 11:22:23;;;;;;;6.93;1.83;;;;;;;7.36;60.49;99399.53;6141438;23;20021;-84
2022/01/20 11:25:40;;;;;;;3.67;1.60;;;;;;;7.57;59.63;99381.91;6153860;23;20017;-83
2022/01/20 11:28:36;;;;;;;3.00;1.50;;;;;;;7.22;59.76;99312.31;6091912;23;20116;-83
2022/01/20 11:31:43;;;;;;;3.60;1.80;;;;;;;7.70;59.83;99368.44;6127538;23;20069;-83
2022/01/20 11:35:20;;;;;;;8.25;2.30;;;;;;;7.15;60.16;99316.47;6204991;23;20020;-84
2022/01/20 11:38:39;;;;;;;4.57;1.73;;;;;;;7.63;59.95;99353.19;6191253;23;20020;-86
2022/01/20 11:41:40;;;;;;;4.47;1.60;;;;;;;7.62;59.93;99347.25;6216249;23;20037;-88
2022/01/20 11:44:10;;;;;;;5.32;1.75;;;;;;;7.44;59.11;99347.13;6217656;23;20021;-84
2022/01/20 11:46:48;;;;;;;3.17;1.30;;;;;;;7.36;59.13;99305.63;6192211;23;20095;-85
2022/01/20 11:49:25;;;;;;;2.90;1.23;;;;;;;6.83;59.68;99249.47;6166749;23;20020;-85
2022/01/20 11:52:04;;;;;;;2.25;1.20;;;;;;;6.84;60.08;99336.53;6217517;23;20020;-85
2022/01/20 11:54:46;;;;;;;3.78;1.50;;;;;;;6.37;60.97;99314.13;6167009;23;20020;-85
2022/01/20 11:57:22;;;;;;;3.28;1.33;;;;;;;6.01;61.40;99288.41;6191111;23;20016;-84
2022/01/20 11:59:56;;;;;;;2.80;1.55;;;;;;;5.72;61.80;99266.94;6191353;23;20020;-84
2022/01/20 12:02:30;;;;;;;6.75;1.63;;;;;;;5.96;62.37;99325.50;6192644;23;20020;-85
2022/01/20 12:05:18;;;;;;;2.70;1.38;;;;;;;5.84;62.50;99325.31;6168036;23;20021;-84
2022/01/20 12:08:10;;;;;;;3.80;1.40;;;;;;;5.56;62.35;99270.13;6173902;23;20087;-86
2022/01/20 12:11:38;;;;;;;3.78;1.52;;;;;;;5.68;62.85;99313.31;6191737;23;20343;-85
2022/01/20 12:14:09;;;;;;;3.13;1.55;;;;;;;5.30;62.51;99250.38;6218123;23;20027;-85
2022/01/20 12:16:40;;;;;;;5.70;2.05;;;;;;;5.77;63.33;99308.34;6191656;23;20017;-86
2022/01/20 12:19:13;;;;;;;2.47;1.20;;;;;;;5.75;63.41;99294.81;6218134;23;20012;-87
2022/01/20 12:21:50;;;;;;;3.22;1.50;;;;;;;5.70;63.92;99311.63;6205325;23;20059;-87
2022/01/20 12:24:22;;;;;;;3.55;1.80;;;;;;;5.63;64.51;99299.72;6187827;23;20021;-87
2022/01/20 12:27:15;;;;;;;3.03;1.40;;;;;;;5.22;64.70;99249.44;6188335;23;20045;-87
2022/01/20 12:29:54;;;;;;;2.85;1.45;;;;;;;5.11;65.55;99266.13;6187433;23;20056;-87
2022/01/20 12:32:29;;;;;;;2.25;1.10;;;;;;;5.12;66.40;99300.72;6187281;23;20059;-89
2022/01/20 12:35:13;;;;;;;3.15;1.20;;;;;;;4.60;67.70;99232.50;6162087;23;20021;-89
2022/01/20 12:37:43;;;;;;;3.25;1.42;;;;;;;4.59;68.41;99246.81;6161753;23;20197;-90
2022/01/20 12:40:41;;;;;;;2.97;1.23;;;;;;;4.55;68.48;99266.97;6188420;23;20441;-89
2022/01/20 12:43:12;;;;;;;3.08;1.23;;;;;;;4.71;69.98;99291.66;6186220;23;20027;-89
2022/01/20 12:48:26;;;;;;;3.63;1.30;;;;;;;4.50;71.27;99255.94;6195805;23;20017;-89
2022/01/20 12:51:01;;;;;;;4.07;1.90;;;;;;;4.82;71.82;99280.03;6178299;23;20013;-89
2022/01/20 12:53:36;;;;;;;3.22;1.55;;;;;;;4.87;71.71;99268.28;6201701;23;20023;-88
2022/01/20 12:56:30;;;;;;;3.80;1.42;;;;;;;4.99;71.33;99224.69;6201792;23;20017;-89
2022/01/20 12:59:00;;;;;;;3.10;1.60;;;;;;;5.39;71.02;99235.34;6162536;23;20020;-89
2022/01/20 13:01:43;;;;;;;3.08;1.35;;;;;;;5.65;69.95;99242.38;6187827;23;20064;-88
2022/01/20 13:04:14;;;;;;;10.38;8.32;;;;;;;5.56;68.93;99191.66;6137630;23;20017;-89
2022/01/20 13:07:29;;;;;;;2.97;1.58;;;;;;;5.97;68.46;99238.56;6160753;23;20017;-88
2022/01/20 13:10:32;;;;;;;2.30;1.17;;;;;;;5.92;67.79;99222.47;6187212;23;20064;-89
2022/01/20 13:13:18;;;;;;;3.05;1.23;;;;;;;5.65;67.65;99206.94;6164171;23;20028;-88
2022/01/20 13:15:55;;;;;;;2.28;0.90;;;;;;;5.51;67.10;99211.00;6161165;23;20467;-89
2022/01/20 13:18:26;;;;;;;1.92;1.00;;;;;;;5.41;66.90;99213.44;6160993;23;20025;-89
2022/01/20 13:21:23;;;;;;;3.10;1.70;;;;;;;5.33;66.97;99221.72;6188015;23;20021;-89
2022/01/20 13:24:06;;;;;;;2.30;1.40;;;;;;;5.23;67.04;99212.34;6187239;23;20016;-89
2022/01/20 13:26:49;;;;;;;1.92;0.90;;;;;;;5.24;66.56;99225.00;6186782;23;20396;-89
2022/01/20 13:30:03;;;;;;;2.75;1.15;;;;;;;5.22;66.71;99277.28;6162244;23;20047;-89
2022/01/20 13:32:34;;;;;;;2.60;0.80;;;;;;;4.77;67.20;99327.16;5995928;23;20029;-90
2022/01/20 13:35:05;;;;;;;2.72;1.27;;;;;;;2.98;68.52;99200.84;6191819;23;20112;-92
2022/01/20 13:38:03;;;;;;;1.45;0.70;;;;;;;2.95;69.38;99341.94;6191925;23;20020;-90
2022/01/20 13:52:00;;;;;;;1.70;0.85;;;;;;;2.24;73.33;99433.25;6215453;22;20055;-90
2022/01/20 14:05:11;;;;;;;1.80;1.02;;;;;;;1.90;76.34;99418.84;6219804;22;20091;-92
2022/01/20 14:07:41;;;;;;;2.47;1.30;;;;;;;1.95;76.00;99402.22;6167323;23;20099;-92
2022/01/20 14:10:11;;;;;;;2.20;1.10;;;;;;;1.94;76.16;99396.34;6217451;23;20462;-92
2022/01/20 14:12:51;;;;;;;2.60;1.10;;;;;;;2.14;75.98;99406.97;6190920;23;20100;-92
2022/01/20 14:15:21;;;;;;;2.38;1.17;;;;;;;2.23;76.05;99397.16;6217445;23;20031;-92
2022/01/20 14:18:22;;;;;;;2.13;0.85;;;;;;;2.17;75.67;99391.09;6166115;23;20024;-92
2022/01/20 14:21:23;;;;;;;2.63;1.23;;;;;;;2.15;75.68;99377.63;6122368;23;20407;-92
2022/01/20 14:24:24;;;;;;;2.58;1.15;;;;;;;2.31;75.37;99384.78;6190546;23;20017;-91
2022/01/20 14:26:58;;;;;;;5.20;1.15;;;;;;;2.48;74.19;99394.50;6216764;23;20016;-93
2022/01/20 14:29:40;;;;;;;2.70;1.42;;;;;;;2.18;72.74;99338.31;6217051;23;20318;-93
2022/01/20 14:32:12;;;;;;;5.88;3.20;;;;;;;2.61;71.44;99414.16;6216199;23;20013;-93
2022/01/20 14:34:43;;;;;;;4.03;2.20;;;;;;;2.63;69.80;99404.13;6166347;23;20020;-91
2022/01/20 14:37:57;;;;;;;4.65;2.25;;;;;;;2.61;68.57;99430.94;6117606;23;20014;-93
2022/01/20 14:40:53;;;;;;;3.05;1.48;;;;;;;2.57;67.88;99435.03;6125513;23;20041;-92
2022/01/20 14:47:10;;;;;;;2.88;1.33;;;;;;;2.42;65.24;99389.31;6226160;22;20025;-90
2022/01/20 14:52:46;;;;;;;1.88;0.85;;;;;;;2.54;63.91;99379.53;6218054;22;20024;-94
2022/01/20 14:55:26;;;;;;;2.10;1.55;;;;;;;1.81;64.03;99242.50;6190106;23;20527;-93
2022/01/20 14:57:57;;;;;;;4.22;1.25;;;;;;;2.21;63.47;99308.16;6190766;23;20047;-93
2022/01/20 15:00:31;;;;;;;3.33;1.58;;;;;;;2.59;63.55;99388.06;6165514;23;20048;-93
2022/01/20 15:03:31;;;;;;;4.22;1.35;;;;;;;2.31;63.79;99365.50;6216364;23;20017;-92
2022/01/20 15:06:05;;;;;;;3.83;1.73;;;;;;;2.42;63.17;99414.50;6001134;23;20054;-93
2022/01/20 15:08:35;;;;;;;4.47;1.70;;;;;;;2.21;62.97;99383.69;6096169;23;20027;-93
2022/01/20 15:11:15;;;;;;;6.88;1.40;;;;;;;2.38;62.86;99427.78;6047897;23;20409;-91
2022/01/20 15:13:45;;;;;;;3.15;1.27;;;;;;;1.50;63.49;99277.69;6097240;23;20038;-92
2022/01/20 15:16:29;;;;;;;4.88;1.98;;;;;;;2.20;63.36;99402.13;6097965;23;20026;-92
2022/01/20 15:19:10;;;;;;;12.18;5.18;;;;;;;2.35;63.60;99442.81;6097221;23;20070;-92
2022/01/20 15:25:25;;;;;;;6.97;3.33;;;;;;;2.38;62.78;99480.66;5983718;24;20532;-94
2022/01/20 15:27:56;;;;;;;5.55;2.70;;;;;;;1.87;62.16;99401.19;5983460;24;20024;-93
2022/01/20 15:30:28;;;;;;;4.60;2.20;;;;;;;2.20;62.07;99454.97;5960379;24;20020;-94
2022/01/20 15:32:59;;;;;;;5.65;2.75;;;;;;;2.28;61.54;99461.06;5960158;24;20025;-93
2022/01/20 15:35:28;;;;;;;5.22;1.75;;;;;;;1.95;60.65;99415.66;5983766;24;20024;-91
2022/01/20 15:38:13;;;;;;;7.90;2.67;;;;;;;2.30;60.65;99484.66;5983868;24;20479;-94
2022/01/20 15:40:43;;;;;;;4.03;1.25;;;;;;;2.27;60.58;99463.56;5983674;24;20528;-93
2022/01/20 15:47:01;;;;;;;3.65;1.05;;;;;;;1.99;58.53;99446.81;6186591;23;20063;-93
2022/01/20 15:59:46;;;;;;;1.88;1.02;;;;;;;1.86;57.71;99485.84;6203763;23;20055;-88
2022/01/20 16:30:11;;;;;;;2.35;1.15;;;;;;;1.48;56.14;99491.34;6219676;22;20051;-88
2022/01/20 17:15:00;;;;;;;2.78;1.23;;;;;;;1.67;56.34;99613.50;6221825;22;20015;-85
2022/01/20 17:17:32;;;;;;;3.90;1.77;;;;;;;1.58;56.16;99600.63;6191606;23;20017;-85
2022/01/20 17:20:14;;;;;;;3.75;1.02;;;;;;;1.29;56.37;99557.78;6168566;23;20344;-90
2022/01/20 17:23:00;;;;;;;4.47;1.80;;;;;;;1.61;56.85;99593.19;6217410;23;20336;-91
2022/01/20 17:32:04;;;;;;;5.72;1.55;;;;;;;1.34;56.10;99593.13;6235637;22;20027;-88
2022/01/20 18:01:23;;;;;;;4.03;1.13;;;;;;;0.55;56.97;99557.63;6217547;22;20075;-93
2022/01/20 18:03:53;;;;;;;9.18;1.73;;;;;;;1.14;56.80;99670.31;6190250;23;20020;-92
2022/01/20 18:06:23;;;;;;;;;;;;;;;1.09;57.07;99671.81;6216146;23;20013;-88
2022/01/20 18:08:54;;;;;;;3.20;1.55;;;;;;;0.73;56.92;99609.31;6219240;23;19922;-93
2022/01/20 18:11:24;;;;;;;4.30;1.50;;;;;;;0.63;56.58;99593.06;6190003;23;20091;-94
2022/01/20 18:13:54;;;;;;;;;;;;;;;1.03;57.01;99651.47;6188126;23;20100;-90
2022/01/20 18:20:01;;;;;;;5.28;1.70;;;;;;;0.94;57.58;99658.69;6216422;23;20047;-92
2022/01/20 18:22:41;;;;;;;6.63;1.80;;;;;;;0.73;57.74;99632.78;6215991;23;20448;-93
2022/01/20 18:25:13;;;;;;;7.28;2.05;;;;;;;0.88;57.88;99666.00;6188866;23;20044;-93
2022/01/20 18:27:51;;;;;;;3.42;1.73;;;;;;;0.78;58.29;99663.94;6216103;23;20071;-92
2022/01/20 18:30:21;;;;;;;4.80;1.50;;;;;;;0.00;58.34;99531.31;6189272;23;20025;-90
2022/01/20 18:32:51;;;;;;;4.15;1.85;;;;;;;0.35;58.49;99607.91;6215862;23;20091;-94
2022/01/20 18:35:24;;;;;;;5.85;1.60;;;;;;;0.57;58.88;99653.09;6164698;23;20016;-90
2022/01/20 18:38:00;;;;;;;5.57;1.50;;;;;;;0.32;59.04;99635.38;6188584;23;20020;-94
2022/01/20 18:40:44;;;;;;;9.50;2.65;;;;;;;0.50;58.88;99672.09;6188253;23;20048;-91
2022/01/20 18:43:17;;;;;;;5.95;1.65;;;;;;;0.51;58.82;99675.44;6166751;23;20040;-94
2022/01/20 18:45:58;;;;;;;7.33;1.80;;;;;;;0.29;59.22;99645.31;6213642;23;20025;-93
2022/01/20 18:56:36;;;;;;;1.95;0.98;;;;;;;-0.51;60.38;99575.22;6032901;23;20025;-80
2022/01/20 18:59:05;;;;;;;4.57;1.70;;;;;;;-0.68;60.67;99567.00;6064961;23;20022;-80
2022/01/20 19:01:48;;;;;;;2.38;0.95;;;;;;;-0.29;61.03;99655.50;6086404;23;20018;-81
2022/01/20 19:04:33;;;;;;;5.20;1.90;;;;;;;-1.10;61.46;99555.16;6142006;23;20026;-82
2022/01/20 19:07:30;;;;;;;4.45;1.30;;;;;;;-0.53;61.34;99692.09;6135609;23;20046;-85
2022/01/20 19:10:14;;;;;;;4.35;1.42;;;;;;;-0.63;62.65;99710.03;6142587;23;20025;-85
2022/01/20 19:13:28;;;;;;;2.63;1.30;;;;;;;-0.77;62.92;99701.03;6119003;23;20025;-83
2022/01/20 19:16:13;;;;;;;3.05;1.20;;;;;;;-1.74;63.37;99561.50;6137752;23;20045;-84
2022/01/20 19:19:15;;;;;;;;;;;;;;;-0.96;63.86;99708.53;6090725;23;20026;-86
2022/01/20 19:25:32;;;;;;;3.58;1.40;;;;;;;-0.92;64.25;99716.25;6015978;23;20026;-87
2022/01/20 19:28:31;;;;;;;4.50;1.40;;;;;;;-1.09;63.70;99661.19;6070371;23;20487;-87
2022/01/20 19:31:09;;;;;;;4.45;1.83;;;;;;;-1.17;63.93;99633.31;6123616;23;20069;-88
2022/01/20 19:34:08;;;;;;;3.13;1.65;;;;;;;-0.64;63.81;99718.31;6122047;23;20029;-89
2022/01/20 19:53:42;;;;;;;2.08;0.98;;;;;;;-0.57;64.44;99712.78;5974819;24;20024;-89
2022/01/20 20:27:52;;;;;;;5.53;1.70;;;;;;;-0.68;64.55;99571.16;6162563;23;20022;-87
2022/01/20 20:30:21;;;;;;;;;;;;;;;0.13;64.35;99709.06;6151208;23;20135;-86
2022/01/20 20:48:25;;;;;;;2.75;1.48;;;;;;;0.23;63.61;99701.13;6235542;22;20053;-82
2022/01/20 20:54:23;;;;;;;;;;;;;;;0.46;63.26;99699.50;6284360;22;20023;-82
2022/01/20 20:56:58;;;;;;;4.43;1.40;;;;;;;0.49;62.58;99697.13;6273435;22;19934;-80
2022/01/20 21:04:17;;;;;;;4.03;1.90;;;;;;;0.13;62.83;99653.03;6119564;23;20033;-85
2022/01/20 21:07:08;;;;;;;5.57;2.78;;;;;;;-0.23;63.02;99588.06;6081729;23;20540;-86
2022/01/20 21:17:38;;;;;;;4.75;1.73;;;;;;;0.15;63.47;99656.44;6293191;22;20060;-92
2022/01/20 21:20:11;;;;;;;5.32;2.63;;;;;;;0.50;63.71;99711.41;6259059;22;20043;-93
2022/01/20 21:22:41;;;;;;;7.85;2.03;;;;;;;0.52;64.00;99705.66;6284437;22;20517;-92
2022/01/20 21:25:16;;;;;;;4.13;2.05;;;;;;;0.39;63.91;99678.34;6227349;22;20402;-93
2022/01/20 21:48:42;;;;;;;14.02;5.03;;;;;;;0.27;64.00;99699.59;6288994;22;20104;-92
2022/01/20 21:51:13;;;;;;;8.93;4.38;;;;;;;0.23;63.94;99692.75;6255698;22;20015;-92
2022/01/20 21:53:45;;;;;;;16.25;6.72;;;;;;;-0.20;63.94;99632.47;6227147;22;20103;-92
2022/01/20 22:42:16;;;;;;;4.18;1.42;;;;;;;0.34;65.54;99701.53;6264434;22;20453;-93
2022/01/20 22:56:08;;;;;;;3.97;2.08;;;;;;;-0.31;66.82;99604.44;5933763;24;20031;-91
2022/01/20 23:27:54;;;;;;;2.90;1.30;;;;;;;0.06;74.74;99741.38;6090959;23;20061;-89
2022/01/20 23:30:41;;;;;;;7.72;2.10;;;;;;;0.04;75.05;99747.97;6073472;23;20046;-90
2022/01/20 23:33:21;;;;;;;5.07;2.20;;;;;;;0.07;75.34;99754.00;6095733;23;20097;-90
2022/01/20 23:35:58;;;;;;;4.35;2.45;;;;;;;-0.05;75.27;99759.31;6132185;23;20025;-89
